KLRJ/LRJ METAR and TAF weather

Enter ICAO airport designator
Station Type Date Time Source
KLRJ METAR 2021/05/11 00:15 UTC NOAA

KLRJ 110015Z AUTO 04009G15KT 10SM FEW090 15/M05 A3015 RMK AO2


Station Type Date Time Source
KLRJ Decoded METAR 2021/05/11 00:15 UTC NOAA

Le Mars, Le Mars Municipal Airport, IA, United States (KLRJ) 42-46-41N 096-11-37W
May 10, 2021 - 08:15 PM EDT / 2021.05.11 0015 UTC
Wind: from the NE (040 degrees) at 10 MPH (9 KT) gusting to 17 MPH (15 KT):0
Visibility: 10 mile(s):0
Sky conditions: mostly clear
Temperature: 59 F (15 C)
Dew Point: 23 F (-5 C)
Relative Humidity: 24%
Pressure (altimeter): 30.15 in. Hg (1020 hPa)
ob: KLRJ 110015Z AUTO 04009G15KT 10SM FEW090 15/M05 A3015 RMK AO2
cycle: 0

Station Type Date Time Source
KLRJ TAF UTC NOAA

Error!

Example: see airport list